Aviation Digital Data Service (ADDS)

Output produced by METARs form (1048 UTC 18 June 2019)
found at http://www.aviationweather.gov/metar/data/
 
METAR text: VTUI 181000Z 03004KT 9999 VCSH FEW030CB BKN035 30/26 Q1004 NOSIG
Conditions at: VTUI (SAKON NAKHON , TH) observed 1000 UTC 18 June 2019
Temperature: 30.0°C (86°F)
Dewpoint: 26.0°C (79°F) [RH = 79%]
Pressure (altimeter): 29.65 inches Hg (1004.0 mb)
Winds: from the NNE (30 degrees) at 5 MPH (4 knots; 2.1 m/s)
Visibility: 6 or more miles (10+ km)
Ceiling: 3500 feet AGL
Clouds: few clouds at 3000 feet AGL
broken clouds at 3500 feet AGL
Weather: VCSH  (showers in vicinity)

METAR text: VTUI 180900Z 18006KT 9999 -RA FEW030TCU BKN035 30/26 Q1004 NOSIG
Conditions at: VTUI (SAKON NAKHON , TH) observed 0900 UTC 18 June 2019
Temperature: 30.0°C (86°F)
Dewpoint: 26.0°C (79°F) [RH = 79%]
Pressure (altimeter): 29.65 inches Hg (1004.0 mb)
Winds: from the S (180 degrees) at 7 MPH (6 knots; 3.1 m/s)
Visibility: 6 or more miles (10+ km)
Ceiling: 3500 feet AGL
Clouds: few clouds at 3000 feet AGL
broken clouds at 3500 feet AGL
Weather: -RA  (light rain)

METAR text: VTUI 180800Z VRB04KT 9999 VCSH FEW030CB BKN035 32/24 Q1005 NOSIG
Conditions at: VTUI (SAKON NAKHON , TH) observed 0800 UTC 18 June 2019
Temperature: 32.0°C (90°F)
Dewpoint: 24.0°C (75°F) [RH = 63%]
Pressure (altimeter): 29.68 inches Hg (1005.0 mb)
Winds: variable direction winds at 5 MPH (4 knots; 2.1 m/s)
Visibility: 6 or more miles (10+ km)
Ceiling: 3500 feet AGL
Clouds: few clouds at 3000 feet AGL
broken clouds at 3500 feet AGL
Weather: VCSH  (showers in vicinity)

METAR text: VTUI 180700Z 22008KT 200V260 9999 VCSH FEW030TCU BKN035 32/25 Q1005 NOSIG
Conditions at: VTUI (SAKON NAKHON , TH) observed 0700 UTC 18 June 2019
Temperature: 32.0°C (90°F)
Dewpoint: 25.0°C (77°F) [RH = 67%]
Pressure (altimeter): 29.68 inches Hg (1005.0 mb)
Winds: from the SW (220 degrees) at 9 MPH (8 knots; 4.1 m/s)
Visibility: 6 or more miles (10+ km)
Ceiling: 3500 feet AGL
Clouds: few clouds at 3000 feet AGL
broken clouds at 3500 feet AGL
Weather: VCSH  (showers in vicinity)

METAR text: VTUI 180600Z VRB04KT 9999 BKN030 32/24 Q1006 NOSIG
Conditions at: VTUI (SAKON NAKHON , TH) observed 0600 UTC 18 June 2019
Temperature: 32.0°C (90°F)
Dewpoint: 24.0°C (75°F) [RH = 63%]
Pressure (altimeter): 29.70 inches Hg (1006.0 mb)
Winds: variable direction winds at 5 MPH (4 knots; 2.1 m/s)
Visibility: 6 or more miles (10+ km)
Ceiling: 3000 feet AGL
Clouds: broken clouds at 3000 feet AGL
Weather: no significant weather observed at this time

METAR text: VTUI 180500Z 20008KT 170V230 9999 BKN025 30/25 Q1007 NOSIG
Conditions at: VTUI (SAKON NAKHON , TH) observed 0500 UTC 18 June 2019
Temperature: 30.0°C (86°F)
Dewpoint: 25.0°C (77°F) [RH = 75%]
Pressure (altimeter): 29.73 inches Hg (1007.0 mb)
Winds: from the SSW (200 degrees) at 9 MPH (8 knots; 4.1 m/s)
Visibility: 6 or more miles (10+ km)
Ceiling: 2500 feet AGL
Clouds: broken clouds at 2500 feet AGL
Weather: no significant weather observed at this time

METAR text: VTUI 180400Z 21007KT 180V240 9999 BKN025 30/25 Q1007 NOSIG
Conditions at: VTUI (SAKON NAKHON , TH) observed 0400 UTC 18 June 2019
Temperature: 30.0°C (86°F)
Dewpoint: 25.0°C (77°F) [RH = 75%]
Pressure (altimeter): 29.73 inches Hg (1007.0 mb)
Winds: from the SSW (210 degrees) at 8 MPH (7 knots; 3.6 m/s)
Visibility: 6 or more miles (10+ km)
Ceiling: 2500 feet AGL
Clouds: broken clouds at 2500 feet AGL
Weather: no significant weather observed at this time

METAR text: VTUI 180300Z 19005KT 130V280 9999 BKN020 30/25 Q1008 NOSIG
Conditions at: VTUI (SAKON NAKHON , TH) observed 0300 UTC 18 June 2019
Temperature: 30.0°C (86°F)
Dewpoint: 25.0°C (77°F) [RH = 75%]
Pressure (altimeter): 29.76 inches Hg (1008.0 mb)
Winds: from the S (190 degrees) at 6 MPH (5 knots; 2.6 m/s)
Visibility: 6 or more miles (10+ km)
Ceiling: 2000 feet AGL
Clouds: broken clouds at 2000 feet AGL
Weather: no significant weather observed at this time

METAR text: VTUI 180200Z 20005KT 170V230 9999 BKN020 29/25 Q1008 NOSIG
Conditions at: VTUI (SAKON NAKHON , TH) observed 0200 UTC 18 June 2019
Temperature: 29.0°C (84°F)
Dewpoint: 25.0°C (77°F) [RH = 79%]
Pressure (altimeter): 29.76 inches Hg (1008.0 mb)
Winds: from the SSW (200 degrees) at 6 MPH (5 knots; 2.6 m/s)
Visibility: 6 or more miles (10+ km)
Ceiling: 2000 feet AGL
Clouds: broken clouds at 2000 feet AGL
Weather: no significant weather observed at this time

METAR text: VTUI 180100Z 15003KT 120V190 9999 BKN025 BKN100 27/25 Q1007 NOSIG
Conditions at: VTUI (SAKON NAKHON , TH) observed 0100 UTC 18 June 2019
Temperature: 27.0°C (81°F)
Dewpoint: 25.0°C (77°F) [RH = 89%]
Pressure (altimeter): 29.73 inches Hg (1007.0 mb)
Winds: from the SSE (150 degrees) at 3 MPH (3 knots; 1.5 m/s)
Visibility: 6 or more miles (10+ km)
Ceiling: 2500 feet AGL
Clouds: broken clouds at 2500 feet AGL
broken clouds at 10000 feet AGL
Weather: no significant weather observed at this time

METAR text: VTUI 180000Z 19003KT 160V230 9999 FEW025 BKN100 27/25 Q1007 NOSIG
Conditions at: VTUI (SAKON NAKHON , TH) observed 0000 UTC 18 June 2019
Temperature: 27.0°C (81°F)
Dewpoint: 25.0°C (77°F) [RH = 89%]
Pressure (altimeter): 29.73 inches Hg (1007.0 mb)
Winds: from the S (190 degrees) at 3 MPH (3 knots; 1.5 m/s)
Visibility: 6 or more miles (10+ km)
Ceiling: 10000 feet AGL
Clouds: few clouds at 2500 feet AGL
broken clouds at 10000 feet AGL
Weather: no significant weather observed at this time

METAR text: VTUI 172300Z 21004KT 170V240 9999 FEW010 SCT025 BKN100 26/25 Q1006 NOSIG
Conditions at: VTUI (SAKON NAKHON , TH) observed 2300 UTC 17 June 2019
Temperature: 26.0°C (79°F)
Dewpoint: 25.0°C (77°F) [RH = 94%]
Pressure (altimeter): 29.70 inches Hg (1006.0 mb)
Winds: from the SSW (210 degrees) at 5 MPH (4 knots; 2.1 m/s)
Visibility: 6 or more miles (10+ km)
Ceiling: 10000 feet AGL
Clouds: few clouds at 1000 feet AGL
scattered clouds at 2500 feet AGL
broken clouds at 10000 feet AGL
Weather: no significant weather observed at this time

METAR text: VTUI 172200Z 21004KT 9000 FEW010 SCT025 BKN100 26/25 Q1006 NOSIG
Conditions at: VTUI (SAKON NAKHON , TH) observed 2200 UTC 17 June 2019
Temperature: 26.0°C (79°F)
Dewpoint: 25.0°C (77°F) [RH = 94%]
Pressure (altimeter): 29.70 inches Hg (1006.0 mb)
Winds: from the SSW (210 degrees) at 5 MPH (4 knots; 2.1 m/s)
Visibility: 6 miles ( 9 km)
Ceiling: 10000 feet AGL
Clouds: few clouds at 1000 feet AGL
scattered clouds at 2500 feet AGL
broken clouds at 10000 feet AGL
Weather: no significant weather observed at this time

METAR text: VTUI 171400Z 00000KT 9999 FEW025 BKN100 26/26 Q1006 NOSIG
Conditions at: VTUI (SAKON NAKHON , TH) observed 1400 UTC 17 June 2019
Temperature: 26.0°C (79°F)
Dewpoint: 26.0°C (79°F) [RH = 100%]
Pressure (altimeter): 29.70 inches Hg (1006.0 mb)
Winds: calm
Visibility: 6 or more miles (10+ km)
Ceiling: 10000 feet AGL
Clouds: few clouds at 2500 feet AGL
broken clouds at 10000 feet AGL
Weather: no significant weather observed at this time

METAR text: VTUI 171300Z 10003KT 070V140 9999 -RA FEW025 BKN100 27/26 Q1006 NOSIG
Conditions at: VTUI (SAKON NAKHON , TH) observed 1300 UTC 17 June 2019
Temperature: 27.0°C (81°F)
Dewpoint: 26.0°C (79°F) [RH = 94%]
Pressure (altimeter): 29.70 inches Hg (1006.0 mb)
Winds: from the E (100 degrees) at 3 MPH (3 knots; 1.5 m/s)
Visibility: 6 or more miles (10+ km)
Ceiling: 10000 feet AGL
Clouds: few clouds at 2500 feet AGL
broken clouds at 10000 feet AGL
Weather: -RA  (light rain)

METAR text: VTUI 171200Z 05005KT 9999 FEW030 BKN100 27/26 Q1005 RETS NOSIG
Conditions at: VTUI (SAKON NAKHON , TH) observed 1200 UTC 17 June 2019
Temperature: 27.0°C (81°F)
Dewpoint: 26.0°C (79°F) [RH = 94%]
Pressure (altimeter): 29.68 inches Hg (1005.0 mb)
Winds: from the NE (50 degrees) at 6 MPH (5 knots; 2.6 m/s)
Visibility: 6 or more miles (10+ km)
Ceiling: 10000 feet AGL
Clouds: few clouds at 3000 feet AGL
broken clouds at 10000 feet AGL
Weather: no significant weather observed at this time

METAR text: VTUI 171100Z 05004KT 020V080 9999 -TSRA FEW018CB SCT025 BKN100 27/26 Q1004 NOSIG
Conditions at: VTUI (SAKON NAKHON , TH) observed 1100 UTC 17 June 2019
Temperature: 27.0°C (81°F)
Dewpoint: 26.0°C (79°F) [RH = 94%]
Pressure (altimeter): 29.65 inches Hg (1004.0 mb)
Winds: from the NE (50 degrees) at 5 MPH (4 knots; 2.1 m/s)
Visibility: 6 or more miles (10+ km)
Ceiling: 10000 feet AGL
Clouds: few clouds at 1800 feet AGL
scattered clouds at 2500 feet AGL
broken clouds at 10000 feet AGL
Weather: -TSRA  (light rain associated with thunderstorm(s))

METAR text: VTUI 171000Z 32004KT 260V010 9999 -TSRA FEW018CB SCT030 27/26 Q1004 NOSIG
Conditions at: VTUI (SAKON NAKHON , TH) observed 1000 UTC 17 June 2019
Temperature: 27.0°C (81°F)
Dewpoint: 26.0°C (79°F) [RH = 94%]
Pressure (altimeter): 29.65 inches Hg (1004.0 mb)
Winds: from the NW (320 degrees) at 5 MPH (4 knots; 2.1 m/s)
Visibility: 6 or more miles (10+ km)
Ceiling: at least 12,000 feet AGL
Clouds: few clouds at 1800 feet AGL
scattered clouds at 3000 feet AGL
Weather: -TSRA  (light rain associated with thunderstorm(s))

METAR text: VTUI 170900Z 04005KT 350V070 9999 FEW018CB SCT025 BKN060 30/26 Q1004 NOSIG
Conditions at: VTUI (SAKON NAKHON , TH) observed 0900 UTC 17 June 2019
Temperature: 30.0°C (86°F)
Dewpoint: 26.0°C (79°F) [RH = 79%]
Pressure (altimeter): 29.65 inches Hg (1004.0 mb)
Winds: from the NE (40 degrees) at 6 MPH (5 knots; 2.6 m/s)
Visibility: 6 or more miles (10+ km)
Ceiling: 6000 feet AGL
Clouds: few clouds at 1800 feet AGL
scattered clouds at 2500 feet AGL
broken clouds at 6000 feet AGL
Weather: no significant weather observed at this time

METAR text: VTUI 170800Z 20005KT 140V290 9999 SCT025 BKN060 31/25 Q1004 NOSIG
Conditions at: VTUI (SAKON NAKHON , TH) observed 0800 UTC 17 June 2019
Temperature: 31.0°C (88°F)
Dewpoint: 25.0°C (77°F) [RH = 71%]
Pressure (altimeter): 29.65 inches Hg (1004.0 mb)
Winds: from the SSW (200 degrees) at 6 MPH (5 knots; 2.6 m/s)
Visibility: 6 or more miles (10+ km)
Ceiling: 6000 feet AGL
Clouds: scattered clouds at 2500 feet AGL
broken clouds at 6000 feet AGL
Weather: no significant weather observed at this time

METAR text: VTUI 170700Z 10004KT 040V170 9999 BKN025 BKN070 30/26 Q1005 NOSIG
Conditions at: VTUI (SAKON NAKHON , TH) observed 0700 UTC 17 June 2019
Temperature: 30.0°C (86°F)
Dewpoint: 26.0°C (79°F) [RH = 79%]
Pressure (altimeter): 29.68 inches Hg (1005.0 mb)
Winds: from the E (100 degrees) at 5 MPH (4 knots; 2.1 m/s)
Visibility: 6 or more miles (10+ km)
Ceiling: 2500 feet AGL
Clouds: broken clouds at 2500 feet AGL
broken clouds at 7000 feet AGL
Weather: no significant weather observed at this time

METAR text: VTUI 170600Z 11005KT 9999 FEW010 BKN030 28/26 Q1006 NOSIG
Conditions at: VTUI (SAKON NAKHON , TH) observed 0600 UTC 17 June 2019
Temperature: 28.0°C (82°F)
Dewpoint: 26.0°C (79°F) [RH = 89%]
Pressure (altimeter): 29.70 inches Hg (1006.0 mb)
Winds: from the ESE (110 degrees) at 6 MPH (5 knots; 2.6 m/s)
Visibility: 6 or more miles (10+ km)
Ceiling: 3000 feet AGL
Clouds: few clouds at 1000 feet AGL
broken clouds at 3000 feet AGL
Weather: no significant weather observed at this time

METAR text: VTUI 170500Z 12005KT 080V160 9999 FEW010 BKN030 27/25 Q1007 NOSIG
Conditions at: VTUI (SAKON NAKHON , TH) observed 0500 UTC 17 June 2019
Temperature: 27.0°C (81°F)
Dewpoint: 25.0°C (77°F) [RH = 89%]
Pressure (altimeter): 29.73 inches Hg (1007.0 mb)
Winds: from the ESE (120 degrees) at 6 MPH (5 knots; 2.6 m/s)
Visibility: 6 or more miles (10+ km)
Ceiling: 3000 feet AGL
Clouds: few clouds at 1000 feet AGL
broken clouds at 3000 feet AGL
Weather: no significant weather observed at this time

METAR text: VTUI 170400Z 12004KT 9999 FEW010 BKN025 27/25 Q1007 NOSIG
Conditions at: VTUI (SAKON NAKHON , TH) observed 0400 UTC 17 June 2019
Temperature: 27.0°C (81°F)
Dewpoint: 25.0°C (77°F) [RH = 89%]
Pressure (altimeter): 29.73 inches Hg (1007.0 mb)
Winds: from the ESE (120 degrees) at 5 MPH (4 knots; 2.1 m/s)
Visibility: 6 or more miles (10+ km)
Ceiling: 2500 feet AGL
Clouds: few clouds at 1000 feet AGL
broken clouds at 2500 feet AGL
Weather: no significant weather observed at this time

METAR text: VTUI 170200Z 06005KT 010V090 9999 FEW007 BKN030 26/24 Q1008 NOSIG
Conditions at: VTUI (SAKON NAKHON , TH) observed 0200 UTC 17 June 2019
Temperature: 26.0°C (79°F)
Dewpoint: 24.0°C (75°F) [RH = 89%]
Pressure (altimeter): 29.76 inches Hg (1008.0 mb)
Winds: from the ENE (60 degrees) at 6 MPH (5 knots; 2.6 m/s)
Visibility: 6 or more miles (10+ km)
Ceiling: 3000 feet AGL
Clouds: few clouds at 700 feet AGL
broken clouds at 3000 feet AGL
Weather: no significant weather observed at this time

METAR text: VTUI 170100Z 03004KT 350V060 9999 FEW005 BKN025 25/24 Q1008 NOSIG
Conditions at: VTUI (SAKON NAKHON , TH) observed 0100 UTC 17 June 2019
Temperature: 25.0°C (77°F)
Dewpoint: 24.0°C (75°F) [RH = 94%]
Pressure (altimeter): 29.76 inches Hg (1008.0 mb)
Winds: from the NNE (30 degrees) at 5 MPH (4 knots; 2.1 m/s)
Visibility: 6 or more miles (10+ km)
Ceiling: 2500 feet AGL
Clouds: few clouds at 500 feet AGL
broken clouds at 2500 feet AGL
Weather: no significant weather observed at this time

METAR text: VTUI 170000Z 35003KT 290V040 9999 FEW005 SCT025 BKN080 25/25 Q1007 NOSIG
Conditions at: VTUI (SAKON NAKHON , TH) observed 0000 UTC 17 June 2019
Temperature: 25.0°C (77°F)
Dewpoint: 25.0°C (77°F) [RH = 100%]
Pressure (altimeter): 29.73 inches Hg (1007.0 mb)
Winds: from the N (350 degrees) at 3 MPH (3 knots; 1.5 m/s)
Visibility: 6 or more miles (10+ km)
Ceiling: 8000 feet AGL
Clouds: few clouds at 500 feet AGL
scattered clouds at 2500 feet AGL
broken clouds at 8000 feet AGL
Weather: no significant weather observed at this time

METAR text: VTUI 162300Z 34006KT 290V040 9999 FEW025 BKN080 26/24 Q1006 NOSIG
Conditions at: VTUI (SAKON NAKHON , TH) observed 2300 UTC 16 June 2019
Temperature: 26.0°C (79°F)
Dewpoint: 24.0°C (75°F) [RH = 89%]
Pressure (altimeter): 29.70 inches Hg (1006.0 mb)
Winds: from the NNW (340 degrees) at 7 MPH (6 knots; 3.1 m/s)
Visibility: 6 or more miles (10+ km)
Ceiling: 8000 feet AGL
Clouds: few clouds at 2500 feet AGL
broken clouds at 8000 feet AGL
Weather: no significant weather observed at this time

Forecast for: VTUI (SAKON NAKHON , TH)
Text: TAF VTUI 180500Z 1806/1906 21006KT 9999 BKN025
Forecast period: 0600 UTC 18 June 2019 to 0600 UTC 19 June 2019
Forecast type: FROM: standard forecast or significant change
Winds: from the SSW (210 degrees) at 7 MPH (6 knots; 3.1 m/s)
Visibility: 6 or more miles 10+ km)
Ceiling: 2500 feet AGL
Clouds: broken clouds at 2500 feet AGL
Weather: no significant weather forecast for this period
Text: TEMPO 1807/1814 5000 TSRA FEW018CB
Forecast period: 0700 to 1400 UTC 18 June 2019
Forecast type: TEMPORARY: The following changes expected for less than half the time period
Visibility: 3 miles (5 km)
Ceiling: at least 12,000 feet AGL
Clouds: few clouds at 1800 feet AGL
Weather: TSRA  (rain associated with thunderstorm(s))
Text: TEMPO 1821/1902 5000 TSRA FEW018CB
Forecast period: 2100 UTC 18 June 2019 to 0200 UTC 19 June 2019
Forecast type: TEMPORARY: The following changes expected for less than half the time period
Visibility: 3 miles (5 km)
Ceiling: at least 12,000 feet AGL
Clouds: few clouds at 1800 feet AGL
Weather: TSRA  (rain associated with thunderstorm(s))